Time;durP1;ratioP1;P1;durP2;ratioP2;P2;SDS_P1;SDS_P2;PMS_P1;PMS_P2;Temp;Humidity;BMP_temperature;BMP_pressure;BME280_temperature;BME280_humidity;BME280_pressure;Samples;Min_cycle;Max_cycle;Signal;HPM_P1;HPM_P2
2022/01/08 00:00:50;;;;;;;6.20;2.70;;;;;;;-6.30;75.63;99444.41;105123;1271;73357;-24
2022/01/08 00:03:18;;;;;;;5.20;2.80;;;;;;;-6.57;76.27;99437.47;105070;1271;61925;-24
2022/01/08 00:05:48;;;;;;;6.40;3.30;;;;;;;-6.79;76.87;99445.67;105162;1271;61031;-25
2022/01/08 00:08:16;;;;;;;3.20;1.90;;;;;;;-6.92;77.86;99443.02;105157;1271;75645;-22
2022/01/08 00:10:44;;;;;;;3.40;2.30;;;;;;;-6.39;77.89;99444.96;105120;1271;74975;-23
2022/01/08 00:13:13;;;;;;;8.40;3.60;;;;;;;-5.50;76.06;99439.52;105130;1274;74222;-23
2022/01/08 00:15:41;;;;;;;11.10;4.40;;;;;;;-5.19;75.26;99441.91;105105;1271;61157;-23
2022/01/08 00:18:10;;;;;;;6.60;2.90;;;;;;;-5.29;74.95;99444.73;105115;1271;61157;-24
2022/01/08 00:20:38;;;;;;;6.50;2.60;;;;;;;-5.53;75.21;99446.84;105142;1271;75219;-23
2022/01/08 00:23:11;;;;;;;6.10;2.90;;;;;;;-5.80;75.65;99446.56;105113;1271;75151;-23
2022/01/08 00:25:39;;;;;;;6.60;2.70;;;;;;;-6.07;76.01;99444.08;105082;1271;73416;-23
2022/01/08 00:28:07;;;;;;;7.20;2.90;;;;;;;-6.33;76.53;99441.05;105116;1271;61855;-23
2022/01/08 00:30:37;;;;;;;5.00;2.60;;;;;;;-6.60;76.17;99441.88;105145;1271;61109;-23
2022/01/08 00:33:05;;;;;;;6.70;3.20;;;;;;;-6.83;76.95;99434.55;105108;1271;74440;-23
2022/01/08 00:35:33;;;;;;;6.10;3.50;;;;;;;-7.04;78.01;99432.11;105124;1271;76140;-23
2022/01/08 00:38:02;;;;;;;7.50;3.60;;;;;;;-7.25;78.64;99432.35;105082;1274;74478;-23
2022/01/08 00:40:31;;;;;;;3.20;1.90;;;;;;;-7.36;78.64;99426.80;104888;1271;62653;-23
2022/01/08 00:42:59;;;;;;;5.40;3.10;;;;;;;-6.66;78.04;99424.84;105152;1271;61056;-23
2022/01/08 00:45:27;;;;;;;10.10;4.00;;;;;;;-5.75;76.39;99427.05;105086;1271;75532;-24
2022/01/08 00:47:56;;;;;;;12.40;6.10;;;;;;;-5.54;75.59;99420.27;104949;1271;75834;-24
2022/01/08 00:50:24;;;;;;;18.20;9.00;;;;;;;-5.69;75.31;99421.26;104796;1271;73438;-23
2022/01/08 00:52:52;;;;;;;14.80;7.50;;;;;;;-5.97;75.68;99416.94;104812;1271;61144;-23
2022/01/08 00:55:21;;;;;;;15.30;7.20;;;;;;;-6.26;76.14;99410.75;104930;1271;61956;-23
2022/01/08 00:57:49;;;;;;;15.20;7.40;;;;;;;-6.53;76.78;99404.67;104969;1271;75410;-24
2022/01/08 01:00:18;;;;;;;14.80;6.20;;;;;;;-6.79;77.04;99398.58;105013;1274;76404;-23
2022/01/08 01:02:46;;;;;;;10.70;6.30;;;;;;;-7.01;77.39;99397.50;105136;1271;73383;-23
2022/01/08 01:05:14;;;;;;;14.10;6.70;;;;;;;-7.21;77.93;99391.16;105165;1271;61801;-25
2022/01/08 01:07:44;;;;;;;16.30;7.00;;;;;;;-7.40;78.59;99393.23;105081;1271;61101;-22
2022/01/08 01:10:12;;;;;;;7.90;3.70;;;;;;;-7.54;78.38;99388.72;104958;1271;74540;-24
2022/01/08 01:12:40;;;;;;;5.90;2.90;;;;;;;-7.11;78.40;99386.54;105092;1271;75041;-25
2022/01/08 01:15:13;;;;;;;12.70;5.80;;;;;;;-6.13;77.34;99380.89;105080;1274;74340;-23
2022/01/08 01:17:42;;;;;;;11.70;5.20;;;;;;;-5.74;75.70;99383.75;105095;1272;61154;-23
2022/01/08 01:20:13;;;;;;;18.20;9.90;;;;;;;-5.84;75.41;99377.76;105027;1274;61032;-23
2022/01/08 01:25:13;;;;;;;8.10;3.70;;;;;;;-6.51;75.51;99378.31;104954;1271;75762;-23
2022/01/08 01:28:02;;;;;;;9.60;5.10;;;;;;;-6.86;76.90;99372.61;104785;1271;74379;-23
2022/01/08 01:42:39;;;;;;;7.10;3.00;;;;;;;-7.58;78.90;99363.08;105144;1271;73353;-24
2022/01/08 01:47:33;;;;;;;6.60;2.60;;;;;;;-6.21;75.65;99362.89;105101;1271;61131;-23
2022/01/08 01:50:04;;;;;;;5.10;2.90;;;;;;;-6.44;75.43;99361.19;104868;1274;75503;-23
2022/01/08 01:52:32;;;;;;;5.70;3.00;;;;;;;-6.75;76.20;99354.98;105126;1274;76093;-24
2022/01/08 01:55:00;;;;;;;5.70;3.20;;;;;;;-7.02;76.94;99354.27;104397;1271;1003025;-23
2022/01/08 01:57:29;;;;;;;5.40;2.90;;;;;;;-7.25;77.36;99353.05;105111;1271;61131;-23
2022/01/08 01:59:57;;;;;;;2.30;1.40;;;;;;;-7.48;77.88;99352.78;105050;1271;61045;-23
2022/01/08 02:02:26;;;;;;;3.70;2.00;;;;;;;-7.66;78.49;99351.83;104273;1271;1003110;-24
2022/01/08 02:04:54;;;;;;;2.80;2.20;;;;;;;-7.83;78.84;99347.98;105006;1271;74536;-24
2022/01/08 02:07:26;;;;;;;2.50;1.80;;;;;;;-7.93;79.03;99352.03;105058;1271;74198;-24
2022/01/08 02:09:55;;;;;;;3.40;2.00;;;;;;;-7.32;79.09;99356.76;104701;1271;64177;-24
2022/01/08 02:12:24;;;;;;;7.50;2.80;;;;;;;-6.37;77.00;99356.92;104804;1274;61087;-24
2022/01/08 02:14:52;;;;;;;4.00;2.70;;;;;;;-6.10;75.88;99350.79;104982;1274;74801;-25
2022/01/08 02:17:21;;;;;;;7.80;3.60;;;;;;;-6.19;75.92;99346.98;105130;1271;75810;-23
2022/01/08 02:19:56;;;;;;;7.40;3.60;;;;;;;-6.44;75.75;99344.14;105143;1271;73302;-23
2022/01/08 02:22:24;;;;;;;7.40;3.40;;;;;;;-6.76;76.15;99347.05;104736;1274;61502;-22
2022/01/08 02:24:52;;;;;;;5.90;3.10;;;;;;;-7.04;76.61;99349.73;105136;1271;61102;-22
2022/01/08 02:27:21;;;;;;;6.40;2.90;;;;;;;-7.31;77.42;99348.50;105117;1271;75625;-22
2022/01/08 02:29:50;;;;;;;3.30;2.00;;;;;;;-7.56;77.57;99353.65;105121;1271;76006;-24
2022/01/08 02:32:24;;;;;;;4.80;2.30;;;;;;;-7.81;77.88;99354.71;104982;1271;73518;-23
2022/01/08 02:34:52;;;;;;;3.70;2.30;;;;;;;-8.05;78.02;99352.23;104879;1274;61186;-23
2022/01/08 02:37:25;;;;;;;2.40;1.50;;;;;;;-7.78;78.28;99355.38;104809;1271;61138;-23
2022/01/08 02:39:54;;;;;;;3.60;1.50;;;;;;;-6.89;76.39;99350.50;104764;1271;73907;-23
2022/01/08 02:42:24;;;;;;;5.30;2.70;;;;;;;-6.58;75.33;99342.36;104773;1271;75818;-23
2022/01/08 02:44:52;;;;;;;3.20;1.80;;;;;;;-6.68;75.20;99343.28;104819;1274;73019;-23
2022/01/08 02:47:21;;;;;;;6.80;2.80;;;;;;;-6.97;75.49;99337.88;105145;1272;61239;-23
2022/01/08 02:49:52;;;;;;;3.80;3.00;;;;;;;-7.24;76.77;99339.37;105130;1271;61153;-23
2022/01/08 02:52:22;;;;;;;5.20;2.80;;;;;;;-7.46;77.51;99335.73;104888;1274;75398;-23
2022/01/08 02:54:50;;;;;;;2.40;1.60;;;;;;;-7.66;77.86;99335.64;105017;1272;76415;-23
2022/01/08 02:57:19;;;;;;;3.70;2.10;;;;;;;-7.86;78.50;99333.31;104789;1271;74180;-23
2022/01/08 02:59:47;;;;;;;3.40;2.10;;;;;;;-8.02;79.34;99331.66;104868;1271;62769;-23
2022/01/08 03:02:15;;;;;;;5.40;1.60;;;;;;;-7.93;80.10;99329.79;105011;1271;61020;-23
2022/01/08 03:04:45;;;;;;;3.00;1.60;;;;;;;-7.05;78.72;99331.66;104844;1271;73837;-23
2022/01/08 03:07:15;;;;;;;5.90;2.40;;;;;;;-6.41;76.17;99327.89;104785;1271;75012;-23
2022/01/08 03:09:44;;;;;;;2.30;1.30;;;;;;;-6.36;75.83;99325.33;105020;1272;73479;-23
2022/01/08 03:12:26;;;;;;;5.40;2.80;;;;;;;-6.58;75.58;99324.98;105127;1271;61070;-23
2022/01/08 03:14:55;;;;;;;3.40;2.10;;;;;;;-6.84;76.17;99321.10;105134;1271;61988;-25
2022/01/08 03:17:24;;;;;;;5.00;1.90;;;;;;;-7.10;76.65;99326.31;104892;1271;74099;-25
2022/01/08 03:19:59;;;;;;;4.60;2.10;;;;;;;-7.36;77.35;99323.21;104927;1271;75899;-23
2022/01/08 03:22:28;;;;;;;4.30;1.30;;;;;;;-7.60;78.02;99318.25;104823;1271;73594;-23
2022/01/08 03:24:56;;;;;;;5.60;2.30;;;;;;;-7.81;78.50;99313.91;104853;1272;61035;-23
2022/01/08 03:27:25;;;;;;;4.20;1.70;;;;;;;-7.96;79.22;99307.88;104753;1271;61088;-23
2022/01/08 03:29:53;;;;;;;4.10;1.70;;;;;;;-7.43;79.12;99312.10;104832;1271;75568;-23
2022/01/08 03:32:22;;;;;;;4.70;2.70;;;;;;;-6.55;76.85;99316.34;104772;1271;75068;-22
2022/01/08 03:34:52;;;;;;;10.60;4.00;;;;;;;-6.29;75.11;99313.45;104797;1271;72353;-23
2022/01/08 03:37:20;;;;;;;7.70;3.80;;;;;;;-6.44;74.86;99308.82;104809;1271;61073;-23
2022/01/08 03:39:49;;;;;;;6.10;2.40;;;;;;;-6.73;75.30;99309.38;105105;1271;61009;-23
2022/01/08 03:42:17;;;;;;;5.80;2.20;;;;;;;-7.02;75.77;99311.08;105123;1274;75453;-24
2022/01/08 03:44:46;;;;;;;4.90;2.20;;;;;;;-7.33;76.28;99310.55;105145;1271;75971;-24
2022/01/08 03:49:56;;;;;;;4.30;1.80;;;;;;;-7.92;77.22;99305.01;104811;1271;62507;-23
2022/01/08 03:52:25;;;;;;;6.60;2.40;;;;;;;-8.13;77.90;99302.52;104656;1271;61160;-23
2022/01/08 03:54:53;;;;;;;3.20;1.40;;;;;;;-8.04;79.03;99301.49;104643;1274;75483;-24
2022/01/08 03:57:21;;;;;;;8.50;1.80;;;;;;;-7.17;77.68;99302.04;105137;1271;75984;-23
2022/01/08 03:59:49;;;;;;;6.70;2.50;;;;;;;-6.62;76.09;99295.77;104880;1271;74488;-23
2022/01/08 04:02:18;;;;;;;5.90;3.50;;;;;;;-6.60;75.52;99288.33;104818;1271;61144;-23
2022/01/08 04:04:48;;;;;;;3.40;2.30;;;;;;;-6.79;75.59;99286.29;104846;1271;62013;-23
2022/01/08 04:07:16;;;;;;;5.20;1.70;;;;;;;-7.06;76.15;99281.73;104725;1274;76486;-24
2022/01/08 04:09:45;;;;;;;4.10;1.80;;;;;;;-7.31;76.60;99279.67;104806;1271;76007;-23
2022/01/08 04:12:19;;;;;;;3.40;1.80;;;;;;;-7.55;77.06;99276.06;104676;1271;74189;-23
2022/01/08 04:14:55;;;;;;;4.10;2.30;;;;;;;-7.79;77.61;99272.93;104805;1271;61109;-23
2022/01/08 04:17:23;;;;;;;4.20;1.50;;;;;;;-8.00;77.98;99275.02;104795;1271;61760;-23
2022/01/08 04:19:51;;;;;;;5.10;2.20;;;;;;;-7.94;79.02;99270.45;104817;1271;74212;-24
2022/01/08 04:22:20;;;;;;;6.30;3.00;;;;;;;-7.11;77.48;99269.92;104882;1271;75955;-23
2022/01/08 04:24:48;;;;;;;5.00;2.30;;;;;;;-6.61;75.55;99266.73;104850;1271;74576;-23
2022/01/08 04:27:17;;;;;;;6.80;3.20;;;;;;;-6.66;74.87;99260.36;104824;1271;61154;-23
2022/01/08 04:29:45;;;;;;;3.10;1.80;;;;;;;-6.90;75.19;99262.73;104770;1274;62093;-23
2022/01/08 04:32:13;;;;;;;6.60;4.20;;;;;;;-7.19;75.99;99257.50;104855;1271;75293;-23
2022/01/08 04:34:42;;;;;;;15.40;6.70;;;;;;;-7.43;76.32;99260.50;104840;1271;75945;-23
2022/01/08 04:37:11;;;;;;;11.70;4.40;;;;;;;-7.67;77.02;99258.75;104774;1274;73193;-23
2022/01/08 04:39:39;;;;;;;14.50;4.80;;;;;;;-7.89;77.79;99251.57;104864;1271;60975;-23
2022/01/08 04:42:08;;;;;;;5.50;2.80;;;;;;;-8.07;78.53;99253.46;104748;1271;61739;-22
2022/01/08 04:44:36;;;;;;;6.90;2.50;;;;;;;-8.03;79.24;99252.11;104757;1273;75672;-22
2022/01/08 04:47:05;;;;;;;6.20;3.40;;;;;;;-7.16;77.84;99258.66;104799;1271;74742;-23
2022/01/08 04:49:34;;;;;;;11.70;4.80;;;;;;;-6.62;75.37;99258.64;104765;1271;74394;-24
2022/01/08 04:52:04;;;;;;;12.10;5.80;;;;;;;-6.62;74.75;99257.45;104816;1271;60991;-25
2022/01/08 04:54:32;;;;;;;12.50;5.30;;;;;;;-6.81;74.81;99256.92;104781;1271;62021;-25
2022/01/08 04:57:00;;;;;;;6.70;4.40;;;;;;;-7.09;75.60;99254.56;104853;1271;75497;-24
2022/01/08 04:59:29;;;;;;;6.40;3.30;;;;;;;-7.36;76.39;99259.61;104800;1274;75968;-23
2022/01/08 05:01:57;;;;;;;5.40;2.50;;;;;;;-7.60;77.01;99258.72;104978;1274;74422;-25
2022/01/08 05:04:27;;;;;;;7.10;2.80;;;;;;;-7.83;77.71;99255.26;104755;1271;61283;-26
2022/01/08 05:06:55;;;;;;;3.20;1.80;;;;;;;-8.02;78.26;99252.63;104905;1271;62352;-25
2022/01/08 05:09:23;;;;;;;9.60;3.00;;;;;;;-8.04;79.31;99253.29;104924;1274;75311;-25
2022/01/08 05:11:51;;;;;;;10.60;4.60;;;;;;;-7.28;78.21;99251.13;105102;1271;74775;-25
2022/01/08 05:14:20;;;;;;;9.10;5.10;;;;;;;-6.65;75.91;99252.90;105109;1272;73386;-24
2022/01/08 05:16:56;;;;;;;13.70;6.30;;;;;;;-6.61;74.54;99247.13;104950;1271;61138;-24
2022/01/08 05:19:37;;;;;;;16.40;9.40;;;;;;;-6.84;74.86;99247.81;105143;1274;61032;-22
2022/01/08 05:22:06;;;;;;;16.70;7.40;;;;;;;-7.13;75.89;99247.52;104983;1274;74116;-24
2022/01/08 05:24:35;;;;;;;12.80;6.20;;;;;;;-7.37;76.72;99251.86;105043;1273;73853;-24
2022/01/08 05:27:05;;;;;;;9.00;3.90;;;;;;;-7.60;77.17;99252.81;104754;1272;74386;-24
2022/01/08 05:29:35;;;;;;;9.20;3.50;;;;;;;-7.80;77.96;99257.60;104773;1272;61157;-24
2022/01/08 05:32:03;;;;;;;5.00;2.30;;;;;;;-7.94;78.18;99258.83;104778;1272;61032;-24
2022/01/08 05:34:32;;;;;;;13.70;6.20;;;;;;;-7.42;77.92;99259.48;104762;1274;75616;-24
2022/01/08 05:37:00;;;;;;;27.30;11.10;;;;;;;-6.71;75.42;99258.69;104802;1271;75817;-24
2022/01/08 05:39:28;;;;;;;21.20;9.30;;;;;;;-6.61;74.18;99257.26;104729;1274;74202;-24
2022/01/08 05:41:57;;;;;;;26.30;9.70;;;;;;;-6.77;74.72;99257.06;104746;1271;61122;-22
2022/01/08 05:44:25;;;;;;;18.60;6.10;;;;;;;-7.03;75.46;99252.84;104791;1274;61778;-23
2022/01/08 05:46:53;;;;;;;19.70;8.90;;;;;;;-7.27;76.19;99252.64;104804;1271;75740;-23
2022/01/08 05:49:21;;;;;;;11.70;4.80;;;;;;;-7.48;76.83;99253.94;104757;1272;75818;-24
2022/01/08 05:51:49;;;;;;;7.30;4.30;;;;;;;-7.66;77.15;99251.48;105044;1272;74527;-23
2022/01/08 05:54:18;;;;;;;3.70;2.50;;;;;;;-7.70;78.03;99256.06;105092;1272;61166;-23
2022/01/08 05:56:46;;;;;;;12.00;5.10;;;;;;;-7.00;76.89;99256.03;105174;1274;61034;-23
2022/01/08 05:59:15;;;;;;;8.60;4.00;;;;;;;-6.40;74.84;99259.11;105130;1272;75349;-25
2022/01/08 06:01:44;;;;;;;6.30;3.30;;;;;;;-6.35;74.05;99252.48;105053;1274;75886;-23
2022/01/08 06:04:12;;;;;;;4.60;2.80;;;;;;;-6.52;74.15;99253.81;104852;1271;74245;-24
2022/01/08 06:06:41;;;;;;;3.00;2.20;;;;;;;-6.76;74.65;99256.71;105086;1274;61145;-25
2022/01/08 06:09:09;;;;;;;2.40;1.70;;;;;;;-7.02;75.67;99255.02;104771;1274;61139;-25
2022/01/08 06:11:38;;;;;;;2.60;2.10;;;;;;;-7.22;76.49;99249.58;104804;1273;74671;-24
2022/01/08 06:14:07;;;;;;;3.00;1.50;;;;;;;-7.38;77.07;99253.39;104796;1273;75055;-22
2022/01/08 06:16:37;;;;;;;1.60;1.50;;;;;;;-7.40;77.36;99254.39;104910;1271;74455;-25
2022/01/08 06:19:07;;;;;;;11.80;5.60;;;;;;;-6.65;76.45;99258.81;104844;1271;61176;-24
2022/01/08 06:21:36;;;;;;;25.80;10.20;;;;;;;-6.14;74.68;99260.39;104751;1274;62018;-25
2022/01/08 06:24:14;;;;;;;30.40;11.40;;;;;;;-6.14;73.88;99263.09;104801;1274;75303;-25
2022/01/08 06:26:42;;;;;;;21.80;10.00;;;;;;;-6.31;74.08;99261.58;104961;1274;75927;-22
2022/01/08 06:29:10;;;;;;;13.80;5.90;;;;;;;-6.50;74.36;99255.48;105131;1271;73388;-24
2022/01/08 06:31:39;;;;;;;17.40;8.00;;;;;;;-6.66;75.03;99252.41;104839;1271;61040;-24
2022/01/08 06:34:07;;;;;;;19.60;6.80;;;;;;;-6.77;75.62;99255.88;104814;1274;61006;-22
2022/01/08 06:36:35;;;;;;;26.30;8.40;;;;;;;-6.86;75.97;99255.44;104823;1271;75611;-22
2022/01/08 06:39:03;;;;;;;18.70;6.00;;;;;;;-6.94;75.82;99260.55;104803;1274;75921;-22
2022/01/08 06:41:32;;;;;;;7.30;3.30;;;;;;;-7.01;76.72;99254.86;104726;1272;74350;-25
2022/01/08 06:44:00;;;;;;;7.00;2.60;;;;;;;-6.80;76.59;99261.46;104727;1271;63772;-24
2022/01/08 06:46:28;;;;;;;11.60;4.40;;;;;;;-5.86;75.40;99266.17;104814;1274;61174;-24
2022/01/08 06:48:57;;;;;;;5.30;2.40;;;;;;;-5.34;72.88;99264.69;104902;1271;75469;-24
2022/01/08 06:51:25;;;;;;;8.70;3.20;;;;;;;-5.21;72.90;99257.60;104832;1274;75641;-23
2022/01/08 06:53:53;;;;;;;8.30;3.90;;;;;;;-5.29;72.96;99259.05;104838;1273;70320;-23
2022/01/08 06:56:22;;;;;;;11.40;4.20;;;;;;;-5.44;73.36;99257.89;104791;1272;61104;-23
2022/01/08 06:58:50;;;;;;;21.50;7.20;;;;;;;-5.65;73.80;99259.66;104870;1274;61544;-23
2022/01/08 07:01:19;;;;;;;17.30;6.10;;;;;;;-5.80;74.46;99260.69;104820;1272;75832;-23
2022/01/08 07:03:47;;;;;;;11.00;4.90;;;;;;;-5.95;75.02;99258.98;104882;1271;362169;-23
2022/01/08 07:06:16;;;;;;;13.50;2.90;;;;;;;-5.94;75.22;99257.81;105134;1272;74408;-23
2022/01/08 07:08:45;;;;;;;6.00;3.40;;;;;;;-5.23;73.98;99254.90;105051;1272;61128;-23
2022/01/08 07:11:13;;;;;;;6.00;3.20;;;;;;;-4.72;72.13;99254.00;104758;1274;61045;-23
2022/01/08 07:13:42;;;;;;;11.80;4.30;;;;;;;-4.71;71.66;99254.83;104946;1271;74532;-23
2022/01/08 07:16:11;;;;;;;8.90;3.90;;;;;;;-4.87;71.83;99255.25;104772;1272;75977;-23
2022/01/08 07:18:39;;;;;;;15.40;4.20;;;;;;;-5.07;72.35;99248.59;104869;1274;73441;-33
2022/01/08 07:21:07;;;;;;;6.20;3.10;;;;;;;-5.28;72.88;99247.52;104827;1272;61230;-23
2022/01/08 07:23:35;;;;;;;4.40;2.50;;;;;;;-5.42;73.31;99247.04;104824;1274;61147;-23
2022/01/08 07:26:04;;;;;;;5.10;2.60;;;;;;;-5.51;73.94;99248.34;105167;1271;75263;-23
2022/01/08 07:28:32;;;;;;;5.40;2.50;;;;;;;-5.12;74.11;99244.42;104998;1274;75404;-23
2022/01/08 07:31:00;;;;;;;4.70;2.20;;;;;;;-4.42;72.02;99244.70;104794;1274;74511;-23
2022/01/08 07:33:29;;;;;;;6.10;2.80;;;;;;;-4.18;71.16;99243.95;104804;1271;61084;-23
2022/01/08 07:35:58;;;;;;;4.70;2.80;;;;;;;-4.26;70.71;99236.80;104824;1271;62026;-23
2022/01/08 07:38:26;;;;;;;6.30;2.70;;;;;;;-4.43;71.52;99237.61;104943;1272;74669;-23
2022/01/08 07:40:54;;;;;;;6.90;3.40;;;;;;;-4.58;71.97;99233.27;104798;1271;74843;-23
2022/01/08 07:43:22;;;;;;;4.20;2.40;;;;;;;-4.74;72.81;99227.27;104748;1271;73268;-23
2022/01/08 07:45:51;;;;;;;2.80;2.10;;;;;;;-4.87;73.07;99225.44;104774;1271;61235;-23
2022/01/08 07:48:19;;;;;;;4.70;1.50;;;;;;;-4.59;73.54;99222.10;104908;1271;61979;-23
2022/01/08 07:50:47;;;;;;;2.10;1.20;;;;;;;-3.90;71.24;99217.81;104847;1274;74613;-23
2022/01/08 07:53:16;;;;;;;6.00;2.90;;;;;;;-3.65;70.44;99210.20;105043;1271;75846;-22
2022/01/08 07:55:45;;;;;;;5.00;2.50;;;;;;;-3.74;70.69;99204.62;105016;1274;73511;-22
2022/01/08 07:58:13;;;;;;;7.10;3.90;;;;;;;-3.88;71.32;99192.33;104842;1271;60973;-24
2022/01/08 08:00:41;;;;;;;4.90;2.70;;;;;;;-4.00;71.52;99193.61;104763;1274;61246;-23
2022/01/08 08:03:10;;;;;;;8.80;4.20;;;;;;;-4.11;72.53;99192.44;104775;1274;75472;-23
2022/01/08 08:05:39;;;;;;;7.30;3.50;;;;;;;-4.15;72.86;99190.81;104733;1271;74924;-22
2022/01/08 08:08:08;;;;;;;2.40;1.70;;;;;;;-4.12;73.61;99192.95;104829;1271;71613;-22
2022/01/08 08:10:37;;;;;;;3.90;2.80;;;;;;;-3.74;73.24;99186.10;104905;1274;62728;-22
2022/01/08 08:13:05;;;;;;;6.50;3.50;;;;;;;-2.89;71.78;99189.83;104792;1272;61466;-24
2022/01/08 08:15:34;;;;;;;7.10;3.90;;;;;;;-2.51;70.07;99185.66;104984;1271;74500;-23
2022/01/08 08:18:02;;;;;;;6.90;3.60;;;;;;;-2.47;70.22;99186.42;104815;1271;75123;-23
2022/01/08 08:20:31;;;;;;;5.90;3.40;;;;;;;-2.50;70.49;99182.07;104843;1271;74823;-25
2022/01/08 08:23:00;;;;;;;5.10;3.60;;;;;;;-2.56;70.84;99185.45;104793;1271;61070;-25
2022/01/08 08:25:28;;;;;;;5.30;3.20;;;;;;;-2.62;70.88;99188.48;104850;1272;61144;-23
2022/01/08 08:27:57;;;;;;;4.40;3.20;;;;;;;-2.70;70.59;99187.17;104817;1272;74878;-23
2022/01/08 08:30:25;;;;;;;3.60;2.60;;;;;;;-2.76;71.17;99183.73;104840;1271;74492;-22
2022/01/08 08:32:53;;;;;;;6.00;3.20;;;;;;;-2.79;71.37;99186.02;104845;1273;73564;-22
2022/01/08 08:35:22;;;;;;;6.20;3.80;;;;;;;-2.31;70.73;99191.09;104878;1271;61108;-22
2022/01/08 08:37:50;;;;;;;4.30;2.80;;;;;;;-1.85;68.34;99193.27;104792;1273;61113;-22
2022/01/08 08:40:19;;;;;;;5.40;3.30;;;;;;;-1.78;67.25;99188.64;105118;1273;74515;-23
2022/01/08 08:42:48;;;;;;;4.80;2.60;;;;;;;-1.93;67.47;99190.09;105153;1271;76319;-22
2022/01/08 08:45:16;;;;;;;5.50;3.70;;;;;;;-2.05;67.69;99194.48;105142;1271;72859;-22
2022/01/08 08:47:45;;;;;;;4.70;2.50;;;;;;;-2.17;68.11;99188.88;105130;1273;61054;-23
2022/01/08 08:50:14;;;;;;;4.60;2.70;;;;;;;-2.30;68.01;99184.98;105112;1274;61073;-23
2022/01/08 08:52:42;;;;;;;3.10;2.20;;;;;;;-2.36;68.37;99183.94;105155;1274;74211;-23
2022/01/08 08:55:13;;;;;;;3.90;2.40;;;;;;;-2.41;68.63;99181.00;105094;1271;75851;-23
2022/01/08 08:57:41;;;;;;;3.00;1.70;;;;;;;-2.47;69.31;99173.67;104838;1274;73408;-23
2022/01/08 09:00:10;;;;;;;4.80;3.00;;;;;;;-2.25;69.03;99160.84;104797;1271;62969;-22
2022/01/08 09:02:39;;;;;;;4.70;2.30;;;;;;;-1.64;66.46;99159.14;104704;1274;61539;-23
2022/01/08 09:05:08;;;;;;;4.50;2.50;;;;;;;-1.48;65.41;99156.45;105121;1273;75596;-23
2022/01/08 09:07:38;;;;;;;5.20;3.00;;;;;;;-1.53;66.10;99152.34;105128;1274;74876;-23
2022/01/08 09:10:15;;;;;;;3.60;2.50;;;;;;;-1.71;66.54;99146.73;105020;1274;74281;-23
2022/01/08 09:12:44;;;;;;;3.60;2.50;;;;;;;-1.87;66.19;99136.33;105134;1271;61145;-23
2022/01/08 09:15:15;;;;;;;3.10;2.30;;;;;;;-1.85;67.54;99142.55;105131;1271;61093;-24
2022/01/08 09:17:43;;;;;;;6.60;3.00;;;;;;;-1.81;66.79;99137.52;104887;1274;75741;-23
2022/01/08 09:20:12;;;;;;;4.20;2.50;;;;;;;-1.92;67.29;99133.55;104840;1274;75073;-23
2022/01/08 09:22:40;;;;;;;5.20;2.60;;;;;;;-2.03;67.56;99133.20;104781;1271;74837;-23
2022/01/08 09:25:09;;;;;;;5.10;3.10;;;;;;;-1.97;68.19;99133.20;104769;1271;61174;-23
2022/01/08 09:27:38;;;;;;;5.30;3.10;;;;;;;-1.79;67.87;99131.16;104681;1274;61725;-23
2022/01/08 09:30:07;;;;;;;5.30;2.50;;;;;;;-1.71;67.06;99131.24;104853;1274;75538;-23
2022/01/08 09:32:35;;;;;;;2.70;1.80;;;;;;;-1.70;66.94;99134.13;104613;1274;74372;-23
2022/01/08 09:35:04;;;;;;;5.90;3.20;;;;;;;-1.76;67.10;99131.91;104859;1271;73585;-23
2022/01/08 09:37:33;;;;;;;4.60;2.90;;;;;;;-1.83;67.01;99129.40;104743;1274;61171;-23
2022/01/08 09:40:03;;;;;;;6.40;2.90;;;;;;;-1.88;67.33;99130.05;104852;1272;61130;-23
2022/01/08 09:42:31;;;;;;;3.40;2.00;;;;;;;-1.82;67.35;99130.73;104680;1274;74540;-23
2022/01/08 09:44:59;;;;;;;5.40;3.00;;;;;;;-1.59;68.06;99126.63;104794;1272;75961;-23
2022/01/08 09:47:28;;;;;;;3.70;2.60;;;;;;;-1.27;66.27;99123.28;104782;1272;74489;-23
2022/01/08 09:49:57;;;;;;;4.40;2.60;;;;;;;-1.12;65.93;99122.63;104698;1274;62732;-23
2022/01/08 09:52:25;;;;;;;8.00;4.20;;;;;;;-1.35;64.78;99116.35;104820;1274;61031;-23
2022/01/08 09:54:53;;;;;;;5.90;3.20;;;;;;;-1.63;65.35;99107.35;104825;1274;74647;-23
2022/01/08 09:57:22;;;;;;;4.30;2.50;;;;;;;-1.79;66.38;99114.47;104794;1274;75994;-23
2022/01/08 09:59:51;;;;;;;6.00;3.50;;;;;;;-1.91;67.05;99106.98;104856;1271;74565;-23
2022/01/08 10:02:22;;;;;;;4.50;2.50;;;;;;;-1.93;67.63;99102.13;104765;1274;61058;-22
2022/01/08 10:04:50;;;;;;;7.30;3.10;;;;;;;-2.01;67.60;99097.57;104690;1274;61104;-23
2022/01/08 10:07:21;;;;;;;7.40;3.60;;;;;;;-2.07;67.46;99094.85;104814;1274;74955;-22
2022/01/08 10:10:15;;;;;;;4.80;3.20;;;;;;;-2.04;67.30;99089.16;104710;1274;75793;-23
2022/01/08 10:12:57;;;;;;;9.90;2.80;;;;;;;-1.46;67.16;99091.34;104649;1273;74708;-23
2022/01/08 10:18:24;;;;;;;4.30;3.10;;;;;;;-1.22;65.64;99065.53;105105;1274;61054;-23
2022/01/08 10:20:56;;;;;;;4.50;2.60;;;;;;;-1.37;66.33;99064.32;104946;1274;75500;-23
2022/01/08 10:23:30;;;;;;;2.50;2.30;;;;;;;-1.49;67.34;99062.31;104890;1274;75118;-23
2022/01/08 10:26:07;;;;;;;3.10;2.20;;;;;;;-1.58;67.07;99054.24;104997;1274;74463;-23
2022/01/08 10:28:46;;;;;;;3.00;2.50;;;;;;;-1.69;67.29;99043.48;105093;1274;61021;-23
2022/01/08 10:31:22;;;;;;;4.10;2.60;;;;;;;-1.74;67.98;99038.73;104898;1274;61096;-23
2022/01/08 10:33:53;;;;;;;6.30;3.20;;;;;;;-1.82;68.08;99028.95;104838;1274;74590;-23
2022/01/08 10:36:24;;;;;;;7.90;3.00;;;;;;;-1.45;67.84;99021.66;105115;1274;74569;-22
2022/01/08 10:38:54;;;;;;;6.30;2.30;;;;;;;-0.94;66.35;99019.08;105074;1274;74334;-22
2022/01/08 10:41:23;;;;;;;4.90;2.70;;;;;;;-0.66;65.88;99019.31;104968;1271;61673;-23
2022/01/08 10:44:25;;;;;;;5.50;3.30;;;;;;;-0.44;64.92;99015.80;104918;1274;61055;-24
2022/01/08 10:46:59;;;;;;;4.90;3.30;;;;;;;-0.67;64.98;99022.60;104635;1277;75470;-22
2022/01/08 10:49:33;;;;;;;5.10;3.40;;;;;;;-0.90;65.71;99015.21;104557;1280;75177;-25
2022/01/08 10:52:10;;;;;;;3.90;2.80;;;;;;;-1.10;66.12;99003.46;104290;1280;73471;-23
2022/01/08 10:54:55;;;;;;;5.00;2.70;;;;;;;-1.23;66.64;99000.99;104259;1280;61146;-23
2022/01/08 10:57:34;;;;;;;3.50;2.70;;;;;;;-1.30;66.90;99005.48;104441;1280;61928;-25
2022/01/08 11:00:06;;;;;;;5.00;2.80;;;;;;;-1.37;67.38;98996.69;104532;1280;74029;-25
2022/01/08 11:02:35;;;;;;;5.00;3.20;;;;;;;-1.44;68.00;98995.58;104627;1279;75095;-25
2022/01/08 11:05:06;;;;;;;3.50;2.30;;;;;;;-1.03;66.84;98999.64;104454;1280;71650;-26
2022/01/08 11:07:37;;;;;;;7.00;3.20;;;;;;;-0.64;65.86;98985.50;104480;1280;61070;-25
2022/01/08 11:10:16;;;;;;;4.20;2.50;;;;;;;-0.59;65.24;98984.09;104474;1280;61269;-25
2022/01/08 11:12:46;;;;;;;3.60;2.70;;;;;;;-0.76;65.51;98967.34;104531;1280;74066;-24
2022/01/08 11:17:57;;;;;;;2.40;1.60;;;;;;;-0.98;65.72;98956.69;104449;1279;74542;-24
2022/01/08 11:20:45;;;;;;;4.00;2.50;;;;;;;-1.04;66.57;98959.98;104482;1280;61262;-22
2022/01/08 11:23:15;;;;;;;3.40;2.30;;;;;;;-1.11;66.56;98965.14;104779;1274;61015;-22
2022/01/08 11:25:44;;;;;;;5.90;3.00;;;;;;;-1.16;66.82;98961.23;104986;1271;75488;-22
2022/01/08 11:28:14;;;;;;;4.00;3.00;;;;;;;-1.19;67.07;98952.65;104905;1273;76054;-24
2022/01/08 11:30:55;;;;;;;6.50;3.00;;;;;;;-1.25;67.07;98952.84;104799;1272;74444;-24
2022/01/08 11:33:30;;;;;;;4.50;2.60;;;;;;;-1.26;67.37;98958.33;105101;1272;61173;-24
2022/01/08 11:35:59;;;;;;;4.60;3.00;;;;;;;-0.84;66.72;98963.70;105090;1271;62337;-24
2022/01/08 11:38:28;;;;;;;2.80;1.90;;;;;;;-0.38;64.91;98965.77;105140;1274;73918;-24
2022/01/08 11:40:58;;;;;;;2.40;2.20;;;;;;;-0.25;64.84;98968.20;105079;1274;74794;-24
2022/01/08 11:43:28;;;;;;;4.40;2.20;;;;;;;-0.33;64.48;98964.89;105095;1274;74414;-24
2022/01/08 11:46:02;;;;;;;2.60;1.80;;;;;;;-0.49;64.99;98969.09;104864;1272;61142;-23
2022/01/08 11:48:43;;;;;;;3.10;2.20;;;;;;;-0.68;65.48;98965.19;105090;1274;61051;-24
2022/01/08 11:51:20;;;;;;;3.90;1.80;;;;;;;-0.89;65.92;98952.13;105119;1274;75881;-22
2022/01/08 11:53:59;;;;;;;3.90;2.70;;;;;;;-0.99;66.60;98951.80;104918;1274;76025;-23
2022/01/08 11:56:37;;;;;;;2.80;1.50;;;;;;;-1.08;66.95;98945.78;105129;1271;74388;-24
2022/01/08 11:59:15;;;;;;;4.90;3.20;;;;;;;-1.18;66.74;98939.17;104989;1272;61151;-24
2022/01/08 12:02:03;;;;;;;4.60;3.00;;;;;;;-1.33;66.97;98938.65;104842;1274;61214;-24